createdAt,value
2023-06-07T00:00:22.430Z,100.00
2023-06-07T00:02:49.141Z,100.00
2023-06-07T00:05:16.051Z,100.00
2023-06-07T00:07:43.133Z,100.00
2023-06-07T00:10:10.311Z,100.00
2023-06-07T00:12:37.157Z,100.00
2023-06-07T00:15:04.833Z,100.00
2023-06-07T00:17:31.566Z,99.82
2023-06-07T00:19:58.250Z,98.85
2023-06-07T00:22:24.834Z,98.22
2023-06-07T00:24:52.760Z,100.00
2023-06-07T00:27:19.794Z,99.71
2023-06-07T00:29:46.389Z,99.82
2023-06-07T00:32:13.570Z,100.00
2023-06-07T00:34:40.104Z,100.00
2023-06-07T00:37:06.667Z,100.00
2023-06-07T00:39:33.284Z,99.81
2023-06-07T00:41:59.900Z,100.00
2023-06-07T00:44:26.405Z,100.00
2023-06-07T00:46:53.292Z,100.00
2023-06-07T00:49:20.041Z,100.00
2023-06-07T00:51:47.456Z,100.00
2023-06-07T00:54:18.258Z,100.00
2023-06-07T00:56:50.504Z,100.00
2023-06-07T00:59:21.439Z,100.00
2023-06-07T01:01:49.828Z,100.00
2023-06-07T01:04:20.516Z,100.00
2023-06-07T01:06:48.048Z,100.00
2023-06-07T01:09:16.030Z,100.00
2023-06-07T01:11:46.181Z,100.00
2023-06-07T01:14:13.382Z,100.00
2023-06-07T01:16:40.985Z,100.00
2023-06-07T01:19:07.657Z,100.00
2023-06-07T01:21:38.031Z,100.00
2023-06-07T01:24:05.000Z,100.00
2023-06-07T01:26:32.978Z,100.00
2023-06-07T01:29:06.861Z,100.00
2023-06-07T01:31:36.741Z,100.00
2023-06-07T01:34:05.416Z,100.00
2023-06-07T01:36:32.677Z,100.00
2023-06-07T01:39:01.484Z,100.00
2023-06-07T01:41:30.109Z,100.00
2023-06-07T01:43:58.674Z,100.00
2023-06-07T01:46:26.557Z,100.00
2023-06-07T01:48:54.610Z,100.00
2023-06-07T01:51:21.051Z,100.00
2023-06-07T01:53:50.972Z,100.00
2023-06-07T01:56:29.652Z,100.00
2023-06-07T01:59:19.968Z,100.00
2023-06-07T02:01:54.540Z,100.00
2023-06-07T02:04:22.085Z,100.00
2023-06-07T02:06:51.848Z,100.00
2023-06-07T02:09:21.131Z,100.00
2023-06-07T02:11:47.919Z,100.00
2023-06-07T02:14:14.504Z,100.00
2023-06-07T02:16:42.576Z,100.00
2023-06-07T02:19:10.351Z,100.00
2023-06-07T02:21:49.528Z,100.00
2023-06-07T02:24:17.302Z,100.00
2023-06-07T02:26:44.630Z,100.00
2023-06-07T02:29:12.638Z,100.00
2023-06-07T02:31:39.208Z,100.00
2023-06-07T02:34:06.616Z,100.00
2023-06-07T02:36:34.375Z,100.00
2023-06-07T02:39:03.872Z,100.00
2023-06-07T02:41:30.434Z,100.00
2023-06-07T02:43:56.993Z,100.00
2023-06-07T02:46:23.475Z,100.00
2023-06-07T02:48:50.533Z,100.00
2023-06-07T02:51:17.162Z,100.00
2023-06-07T02:53:45.428Z,100.00
2023-06-07T02:56:12.953Z,100.00
2023-06-07T02:58:39.566Z,100.00
2023-06-07T03:01:09.868Z,100.00
2023-06-07T03:03:44.126Z,100.00
2023-06-07T03:06:12.934Z,100.00
2023-06-07T03:08:40.090Z,100.00
2023-06-07T03:11:07.957Z,100.00
2023-06-07T03:13:38.537Z,100.00
2023-06-07T03:16:08.971Z,100.00
2023-06-07T03:18:45.415Z,100.00
2023-06-07T03:21:12.382Z,100.00
2023-06-07T03:23:40.127Z,100.00
2023-06-07T03:26:08.422Z,100.00
2023-06-07T03:28:35.682Z,100.00
2023-06-07T03:31:04.217Z,100.00
2023-06-07T03:33:40.202Z,100.00
2023-06-07T03:36:08.467Z,100.00
2023-06-07T03:38:36.706Z,100.00
2023-06-07T03:41:04.057Z,100.00
2023-06-07T03:43:36.000Z,100.00
2023-06-07T03:46:02.546Z,100.00
2023-06-07T03:48:29.454Z,100.00
2023-06-07T03:50:57.172Z,100.00
2023-06-07T03:53:23.782Z,100.00
2023-06-07T03:55:50.802Z,100.00
2023-06-07T03:58:19.511Z,100.00
2023-06-07T04:00:48.354Z,100.00
2023-06-07T04:03:15.328Z,100.00
2023-06-07T04:05:41.938Z,100.00
2023-06-07T04:08:10.886Z,100.00
2023-06-07T04:10:37.458Z,100.00
2023-06-07T04:13:03.893Z,100.00
2023-06-07T04:15:32.234Z,100.00
2023-06-07T04:17:58.795Z,100.00
2023-06-07T04:20:25.862Z,100.00
2023-06-07T04:22:53.201Z,100.00
2023-06-07T04:25:26.977Z,100.00
2023-06-07T04:28:00.474Z,100.00
2023-06-07T04:30:35.465Z,100.00
2023-06-07T04:33:10.044Z,100.00
2023-06-07T04:35:43.831Z,100.00
2023-06-07T04:38:16.585Z,100.00
2023-06-07T04:40:50.335Z,100.00
2023-06-07T04:43:24.902Z,100.00
2023-06-07T04:45:58.130Z,100.00
2023-06-07T04:48:29.012Z,100.00
2023-06-07T04:51:04.138Z,100.00
2023-06-07T04:53:37.228Z,100.00
2023-06-07T04:56:05.405Z,100.00
2023-06-07T04:58:32.730Z,100.00
2023-06-07T05:01:01.986Z,100.00
2023-06-07T05:03:28.654Z,100.00
2023-06-07T05:05:56.634Z,100.00
2023-06-07T05:08:24.572Z,100.00
2023-06-07T05:10:51.869Z,100.00
2023-06-07T05:13:19.105Z,100.00
2023-06-07T05:15:45.741Z,100.00
2023-06-07T05:18:13.553Z,100.00
2023-06-07T05:20:41.068Z,100.00
2023-06-07T05:23:07.606Z,100.00
2023-06-07T05:25:37.557Z,100.00
2023-06-07T05:28:13.176Z,100.00
2023-06-07T05:30:44.314Z,100.00
2023-06-07T05:33:12.223Z,98.72
2023-06-07T05:35:38.873Z,97.68
2023-06-07T05:38:05.467Z,96.22
2023-06-07T05:40:31.993Z,95.72
2023-06-07T05:42:58.541Z,95.11
2023-06-07T05:45:26.329Z,95.31
2023-06-07T05:47:52.955Z,94.53
2023-06-07T05:50:21.996Z,94.53
2023-06-07T05:52:57.187Z,93.25
2023-06-07T05:55:27.994Z,93.54
2023-06-07T05:57:56.027Z,93.53
2023-06-07T06:00:23.517Z,94.69
2023-06-07T06:02:51.257Z,93.24
2023-06-07T06:05:18.435Z,91.99
2023-06-07T06:07:45.043Z,93.34
2023-06-07T06:10:12.399Z,89.98
2023-06-07T06:12:39.022Z,89.82
2023-06-07T06:15:06.518Z,90.54
2023-06-07T06:17:33.061Z,89.50
2023-06-07T06:19:59.728Z,90.43
2023-06-07T06:22:26.786Z,90.32
2023-06-07T06:24:53.291Z,90.59
2023-06-07T06:27:21.794Z,91.71
2023-06-07T06:29:48.444Z,91.22
2023-06-07T06:32:14.939Z,90.19
2023-06-07T06:34:41.460Z,90.05
2023-06-07T06:37:07.986Z,90.30
2023-06-07T06:39:34.539Z,89.43
2023-06-07T06:42:01.101Z,88.87
2023-06-07T06:44:46.298Z,88.43
2023-06-07T06:47:16.059Z,87.40
2023-06-07T06:49:42.707Z,87.56
2023-06-07T06:52:09.170Z,87.18
2023-06-07T06:54:35.729Z,87.15
2023-06-07T06:57:02.271Z,85.87
2023-06-07T06:59:28.894Z,86.84
2023-06-07T07:01:57.689Z,85.14
2023-06-07T07:04:24.343Z,85.55
2023-06-07T07:06:51.031Z,84.30
2023-06-07T07:09:17.549Z,83.30
2023-06-07T07:11:44.148Z,84.40
2023-06-07T07:14:10.673Z,84.55
2023-06-07T07:16:39.230Z,84.48
2023-06-07T07:19:06.093Z,83.86
2023-06-07T07:21:32.592Z,84.90
2023-06-07T07:23:59.116Z,82.41
2023-06-07T07:26:27.099Z,82.37
2023-06-07T07:28:54.320Z,83.08
2023-06-07T07:31:22.150Z,82.20
2023-06-07T07:33:48.893Z,80.00
2023-06-07T07:36:17.310Z,80.46
2023-06-07T07:38:47.030Z,79.85
2023-06-07T07:41:15.319Z,79.59
2023-06-07T07:43:41.876Z,79.72
2023-06-07T07:46:08.478Z,79.60
2023-06-07T07:48:35.137Z,78.27
2023-06-07T07:51:03.162Z,77.59
2023-06-07T07:53:29.798Z,78.17
2023-06-07T07:55:56.649Z,77.46
2023-06-07T07:58:23.226Z,76.56
2023-06-07T08:00:49.707Z,77.84
2023-06-07T08:03:16.538Z,77.38
2023-06-07T08:05:43.182Z,77.26
2023-06-07T08:08:09.683Z,75.92
2023-06-07T08:10:37.821Z,75.13
2023-06-07T08:13:04.297Z,75.18
2023-06-07T08:15:32.622Z,75.91
2023-06-07T08:17:59.176Z,73.97
2023-06-07T08:20:25.707Z,73.56
2023-06-07T08:22:52.245Z,73.44
2023-06-07T08:25:19.225Z,72.63
2023-06-07T08:27:47.106Z,71.11
2023-06-07T08:30:14.085Z,68.79
2023-06-07T08:32:41.037Z,69.98
2023-06-07T08:35:08.883Z,67.28
2023-06-07T08:37:35.731Z,69.49
2023-06-07T08:40:02.713Z,67.64
2023-06-07T08:42:29.970Z,67.41
2023-06-07T08:44:56.508Z,68.17
2023-06-07T08:47:24.843Z,68.41
2023-06-07T08:49:56.643Z,66.26
2023-06-07T08:52:26.676Z,66.10
2023-06-07T08:55:00.468Z,66.94
2023-06-07T08:57:29.681Z,67.42
2023-06-07T08:59:56.520Z,65.85
2023-06-07T09:02:25.406Z,65.26
2023-06-07T09:04:52.484Z,65.50
2023-06-07T09:07:19.052Z,63.98
2023-06-07T09:09:46.002Z,64.88
2023-06-07T09:12:12.722Z,64.43
2023-06-07T09:14:39.377Z,65.68
2023-06-07T09:17:06.093Z,65.24
2023-06-07T09:19:42.990Z,62.93
2023-06-07T09:22:15.450Z,63.48
2023-06-07T09:24:43.278Z,62.08
2023-06-07T09:27:14.039Z,62.28
2023-06-07T09:29:42.654Z,57.57
2023-06-07T09:32:27.863Z,59.54
2023-06-07T09:35:12.161Z,57.57
2023-06-07T09:37:45.077Z,58.65
2023-06-07T09:40:12.570Z,59.64
2023-06-07T09:42:39.556Z,59.06
2023-06-07T09:45:15.394Z,56.95
2023-06-07T09:47:43.433Z,56.86
2023-06-07T09:50:12.641Z,57.18
2023-06-07T09:52:39.814Z,56.88
2023-06-07T09:55:26.495Z,56.08
2023-06-07T09:57:53.165Z,57.88
2023-06-07T10:00:20.479Z,57.40
2023-06-07T10:02:48.323Z,58.01
2023-06-07T10:05:22.295Z,57.66
2023-06-07T10:07:51.687Z,58.37
2023-06-07T10:10:23.060Z,58.69
2023-06-07T10:12:52.283Z,57.84
2023-06-07T10:15:25.028Z,58.82
2023-06-07T10:17:58.625Z,58.07
2023-06-07T10:20:29.652Z,57.20
2023-06-07T10:23:04.723Z,55.97
2023-06-07T10:25:36.218Z,55.39
2023-06-07T10:28:13.170Z,54.60
2023-06-07T10:30:45.583Z,54.08
2023-06-07T10:33:13.627Z,55.52
2023-06-07T10:35:40.887Z,53.22
2023-06-07T10:38:07.580Z,52.87
2023-06-07T10:40:35.124Z,52.31
2023-06-07T10:43:02.409Z,53.29
2023-06-07T10:45:29.019Z,52.80
2023-06-07T10:47:56.211Z,52.30
2023-06-07T10:50:28.665Z,49.86
2023-06-07T10:52:56.709Z,51.00
2023-06-07T10:55:34.644Z,52.17
2023-06-07T10:58:01.389Z,53.00
2023-06-07T11:00:30.871Z,52.28
2023-06-07T11:03:06.561Z,52.18
2023-06-07T11:06:06.618Z,51.79
2023-06-07T11:08:37.429Z,51.61
2023-06-07T11:11:05.789Z,49.38
2023-06-07T11:13:44.456Z,49.42
2023-06-07T11:16:26.984Z,49.63
2023-06-07T11:18:55.488Z,50.74
2023-06-07T11:21:27.121Z,50.64
2023-06-07T11:24:14.942Z,50.06
2023-06-07T11:26:41.774Z,50.66
2023-06-07T11:29:11.455Z,50.02
2023-06-07T11:31:38.558Z,49.95
2023-06-07T11:34:05.361Z,49.46
2023-06-07T11:36:33.025Z,49.30
2023-06-07T11:39:03.149Z,51.55
2023-06-07T11:41:29.713Z,51.09
2023-06-07T11:43:57.663Z,50.88
2023-06-07T11:46:24.301Z,49.74
2023-06-07T11:48:50.905Z,48.81
2023-06-07T11:51:18.261Z,48.57
2023-06-07T11:53:48.484Z,48.05
2023-06-07T11:56:15.433Z,47.39
2023-06-07T11:58:41.961Z,46.94
2023-06-07T12:01:09.089Z,45.22
2023-06-07T12:03:35.957Z,45.57
2023-06-07T12:06:02.946Z,47.20
2023-06-07T12:08:32.347Z,47.86
2023-06-07T12:10:58.840Z,47.81
2023-06-07T12:13:25.530Z,47.30
2023-06-07T12:15:57.024Z,47.45
2023-06-07T12:18:31.609Z,47.11
2023-06-07T12:21:05.106Z,47.20
2023-06-07T12:23:37.067Z,47.29
2023-06-07T12:26:08.753Z,46.70
2023-06-07T12:28:36.172Z,46.55
2023-06-07T12:31:02.779Z,46.33
2023-06-07T12:33:32.335Z,46.38
2023-06-07T12:35:59.488Z,47.22
2023-06-07T12:38:26.627Z,48.44
2023-06-07T12:40:53.193Z,47.68
2023-06-07T12:43:20.018Z,46.64
2023-06-07T12:45:46.462Z,46.50
2023-06-07T12:48:13.786Z,45.68
2023-06-07T12:50:40.376Z,44.68
2023-06-07T12:53:07.073Z,43.59
2023-06-07T12:55:33.586Z,43.02
2023-06-07T12:58:00.425Z,41.75
2023-06-07T13:00:27.093Z,41.88
2023-06-07T13:02:53.813Z,42.55
2023-06-07T13:05:21.483Z,42.82
2023-06-07T13:07:48.013Z,42.16
2023-06-07T13:10:14.539Z,41.75
2023-06-07T13:12:41.267Z,41.95
2023-06-07T13:15:08.450Z,42.10
2023-06-07T13:17:35.761Z,42.61
2023-06-07T13:20:02.991Z,42.24
2023-06-07T13:22:32.103Z,41.42
2023-06-07T13:24:59.381Z,40.71
2023-06-07T13:27:27.940Z,40.62
2023-06-07T13:29:56.317Z,39.17
2023-06-07T13:32:23.267Z,37.35
2023-06-07T13:34:49.786Z,38.36
2023-06-07T13:37:16.372Z,38.68
2023-06-07T13:39:42.914Z,39.56
2023-06-07T13:42:09.455Z,40.57
2023-06-07T13:44:35.962Z,42.27
2023-06-07T13:47:03.929Z,40.49
2023-06-07T13:49:30.590Z,37.92
2023-06-07T13:51:57.400Z,38.17
2023-06-07T13:54:23.956Z,37.63
2023-06-07T13:56:51.269Z,38.35
2023-06-07T13:59:18.124Z,39.38
2023-06-07T14:01:45.342Z,39.31
2023-06-07T14:04:12.120Z,37.10
2023-06-07T14:06:43.269Z,35.50
2023-06-07T14:09:10.114Z,35.01
2023-06-07T14:11:38.749Z,34.13
2023-06-07T14:14:05.382Z,33.73
2023-06-07T14:16:31.993Z,32.51
2023-06-07T14:18:58.528Z,32.70
2023-06-07T14:21:25.320Z,32.00
2023-06-07T14:23:51.826Z,33.38
2023-06-07T14:26:18.374Z,34.71
2023-06-07T14:28:45.032Z,34.73
2023-06-07T14:31:12.107Z,34.01
2023-06-07T14:33:38.763Z,32.52
2023-06-07T14:36:06.152Z,34.15
2023-06-07T14:38:32.782Z,32.30
2023-06-07T14:40:59.650Z,32.47
2023-06-07T14:43:27.673Z,31.18
2023-06-07T14:45:54.184Z,31.79
2023-06-07T14:48:20.756Z,31.25
2023-06-07T14:50:47.274Z,33.77
2023-06-07T14:53:13.847Z,35.41
2023-06-07T14:55:40.383Z,36.50
2023-06-07T14:58:07.164Z,34.88
2023-06-07T15:00:34.776Z,33.46
2023-06-07T15:03:01.425Z,32.05
2023-06-07T15:05:29.316Z,30.98
2023-06-07T15:07:56.690Z,30.33
2023-06-07T15:10:23.244Z,31.23
2023-06-07T15:12:49.696Z,31.69
2023-06-07T15:15:18.827Z,30.92
2023-06-07T15:17:47.740Z,31.39
2023-06-07T15:20:16.957Z,29.76
2023-06-07T15:22:43.524Z,30.62
2023-06-07T15:25:10.067Z,30.38
2023-06-07T15:27:37.401Z,30.23
2023-06-07T15:30:05.220Z,29.39
2023-06-07T15:32:32.603Z,30.21
2023-06-07T15:34:59.830Z,30.38
2023-06-07T15:37:26.306Z,30.14
2023-06-07T15:39:52.859Z,29.68
2023-06-07T15:42:19.439Z,29.10
2023-06-07T15:44:46.510Z,29.22
2023-06-07T15:47:15.328Z,28.65
2023-06-07T15:49:41.916Z,28.82
2023-06-07T15:52:08.439Z,29.34
2023-06-07T15:54:35.191Z,29.75
2023-06-07T15:57:01.701Z,29.51
2023-06-07T15:59:28.202Z,28.72
2023-06-07T16:01:54.732Z,28.63
2023-06-07T16:04:21.291Z,27.75
2023-06-07T16:06:48.250Z,28.23
2023-06-07T16:09:14.784Z,28.56
2023-06-07T16:11:43.080Z,28.11
2023-06-07T16:14:10.858Z,28.78
2023-06-07T16:16:38.310Z,29.02
2023-06-07T16:19:06.142Z,27.93
2023-06-07T16:21:34.309Z,27.99
2023-06-07T16:24:03.349Z,27.43
2023-06-07T16:26:29.962Z,26.40
2023-06-07T16:28:56.481Z,26.46
2023-06-07T16:31:23.992Z,27.60
2023-06-07T16:33:50.768Z,26.38
2023-06-07T16:36:18.204Z,27.18
2023-06-07T16:38:44.827Z,27.25
2023-06-07T16:41:11.363Z,27.56
2023-06-07T16:43:37.826Z,26.97
2023-06-07T16:46:04.364Z,27.06
2023-06-07T16:48:30.896Z,27.72
2023-06-07T16:50:57.509Z,27.40
2023-06-07T16:53:24.090Z,26.90
2023-06-07T16:55:50.658Z,26.85
2023-06-07T16:58:17.210Z,28.02
2023-06-07T17:00:43.766Z,28.46
2023-06-07T17:03:10.441Z,28.99
2023-06-07T17:05:36.963Z,30.13
2023-06-07T17:08:03.620Z,31.75
2023-06-07T17:10:31.725Z,32.50
2023-06-07T17:12:58.310Z,33.83
2023-06-07T17:15:25.064Z,42.59
2023-06-07T17:17:51.624Z,37.22
2023-06-07T17:20:18.165Z,35.89
2023-06-07T17:22:44.755Z,36.56
2023-06-07T17:25:12.289Z,36.52
2023-06-07T17:27:38.790Z,38.12
2023-06-07T17:30:07.704Z,36.19
2023-06-07T17:32:34.520Z,35.87
2023-06-07T17:35:01.116Z,36.08
2023-06-07T17:37:27.640Z,35.84
2023-06-07T17:39:54.836Z,37.81
2023-06-07T17:42:22.195Z,36.50
2023-06-07T17:44:51.067Z,39.35
2023-06-07T17:47:17.720Z,41.21
2023-06-07T17:49:44.219Z,40.38
2023-06-07T17:52:21.698Z,41.21
2023-06-07T17:54:49.842Z,40.55
2023-06-07T17:57:16.527Z,41.42
2023-06-07T17:59:43.173Z,41.21
2023-06-07T18:02:10.757Z,42.52
2023-06-07T18:04:38.552Z,43.67
2023-06-07T18:07:05.683Z,45.30
2023-06-07T18:09:32.210Z,46.29
2023-06-07T18:11:59.233Z,46.34
2023-06-07T18:14:25.982Z,47.56
2023-06-07T18:16:52.522Z,46.83
2023-06-07T18:19:20.601Z,48.04
2023-06-07T18:21:47.339Z,47.00
2023-06-07T18:24:14.194Z,50.10
2023-06-07T18:26:40.911Z,53.60
2023-06-07T18:29:07.479Z,54.05
2023-06-07T18:31:34.100Z,55.68
2023-06-07T18:34:00.938Z,54.65
2023-06-07T18:36:27.420Z,52.21
2023-06-07T18:38:53.913Z,51.08
2023-06-07T18:41:20.495Z,50.24
2023-06-07T18:43:47.198Z,50.48
2023-06-07T18:46:13.853Z,51.46
2023-06-07T18:48:40.382Z,52.11
2023-06-07T18:51:06.966Z,54.41
2023-06-07T18:53:33.581Z,56.50
2023-06-07T18:56:00.315Z,58.50
2023-06-07T18:58:27.077Z,60.82
2023-06-07T19:00:54.299Z,62.27
2023-06-07T19:03:22.448Z,63.12
2023-06-07T19:05:49.118Z,63.49
2023-06-07T19:08:15.678Z,64.58
2023-06-07T19:10:42.231Z,64.10
2023-06-07T19:13:08.779Z,65.99
2023-06-07T19:15:35.267Z,66.24
2023-06-07T19:18:05.871Z,66.17
2023-06-07T19:20:34.615Z,66.37
2023-06-07T19:23:01.309Z,66.99
2023-06-07T19:25:27.984Z,67.60
2023-06-07T19:27:54.549Z,68.88
2023-06-07T19:30:21.157Z,68.45
2023-06-07T19:32:47.787Z,69.40
2023-06-07T19:35:14.457Z,70.85
2023-06-07T19:37:41.030Z,71.71
2023-06-07T19:40:08.986Z,71.72
2023-06-07T19:42:37.693Z,71.70
2023-06-07T19:45:05.162Z,71.38
2023-06-07T19:47:34.879Z,70.91
2023-06-07T19:50:03.062Z,70.41
2023-06-07T19:52:30.438Z,71.28
2023-06-07T19:54:57.031Z,71.56
2023-06-07T19:57:23.702Z,71.55
2023-06-07T19:59:50.316Z,72.73
2023-06-07T20:02:17.128Z,71.93
2023-06-07T20:04:44.138Z,71.12
2023-06-07T20:07:11.941Z,71.50
2023-06-07T20:09:40.335Z,70.47
2023-06-07T20:12:08.743Z,70.29
2023-06-07T20:14:36.472Z,70.11
2023-06-07T20:17:03.016Z,69.97
2023-06-07T20:19:30.225Z,70.12
2023-06-07T20:21:58.853Z,70.99
2023-06-07T20:24:25.467Z,71.54
2023-06-07T20:26:52.025Z,71.32
2023-06-07T20:29:19.197Z,70.72
2023-06-07T20:31:47.320Z,71.85
2023-06-07T20:34:17.000Z,71.93
2023-06-07T20:36:44.030Z,71.89
2023-06-07T20:39:11.136Z,70.84
2023-06-07T20:41:37.862Z,70.52
2023-06-07T20:44:07.983Z,71.72
2023-06-07T20:46:35.539Z,72.47
2023-06-07T20:49:08.039Z,74.14
2023-06-07T20:51:37.167Z,76.68
2023-06-07T20:54:04.721Z,76.34
2023-06-07T20:56:31.391Z,75.97
2023-06-07T20:58:57.885Z,76.63
2023-06-07T21:01:24.426Z,74.53
2023-06-07T21:03:52.044Z,75.21
2023-06-07T21:06:18.901Z,75.04
2023-06-07T21:08:45.447Z,75.20
2023-06-07T21:11:12.092Z,74.81
2023-06-07T21:13:38.673Z,75.18
2023-06-07T21:16:05.608Z,74.48
2023-06-07T21:18:32.127Z,74.84
2023-06-07T21:20:58.601Z,75.10
2023-06-07T21:23:25.166Z,74.38
2023-06-07T21:25:51.752Z,74.62
2023-06-07T21:28:18.330Z,74.09
2023-06-07T21:30:45.558Z,74.14
2023-06-07T21:33:13.768Z,75.60
2023-06-07T21:35:40.945Z,76.87
2023-06-07T21:38:07.517Z,76.77
2023-06-07T21:40:34.252Z,77.61
2023-06-07T21:43:02.960Z,78.12
2023-06-07T21:45:29.609Z,78.53
2023-06-07T21:47:56.356Z,79.39
2023-06-07T21:50:23.120Z,79.58
2023-06-07T21:52:51.854Z,80.04
2023-06-07T21:55:18.492Z,79.65
2023-06-07T21:57:46.129Z,79.13
2023-06-07T22:00:14.056Z,78.76
2023-06-07T22:02:41.443Z,78.77
2023-06-07T22:05:08.725Z,80.77
2023-06-07T22:07:35.315Z,81.08
2023-06-07T22:10:02.493Z,81.85
2023-06-07T22:12:30.311Z,82.62
2023-06-07T22:15:03.234Z,82.18
2023-06-07T22:17:29.869Z,81.42
2023-06-07T22:19:57.535Z,81.23
2023-06-07T22:22:24.235Z,80.82
2023-06-07T22:24:50.882Z,79.56
2023-06-07T22:27:17.375Z,81.09
2023-06-07T22:29:47.323Z,81.07
2023-06-07T22:32:15.326Z,82.63
2023-06-07T22:34:45.762Z,83.44
2023-06-07T22:37:13.947Z,84.16
2023-06-07T22:39:42.291Z,84.85
2023-06-07T22:42:08.795Z,85.38
2023-06-07T22:44:36.987Z,84.35
2023-06-07T22:47:05.553Z,84.71
2023-06-07T22:49:33.210Z,85.75
2023-06-07T22:52:00.117Z,86.13
2023-06-07T22:54:30.247Z,84.95
2023-06-07T22:56:57.347Z,84.84
2023-06-07T22:59:23.972Z,83.24
2023-06-07T23:01:51.924Z,82.76
2023-06-07T23:04:19.680Z,83.17
2023-06-07T23:06:47.425Z,83.73
2023-06-07T23:09:13.927Z,83.25
2023-06-07T23:11:42.385Z,83.86
2023-06-07T23:14:09.092Z,83.97
2023-06-07T23:16:36.339Z,84.95
2023-06-07T23:19:04.705Z,86.38
2023-06-07T23:21:34.094Z,87.20
2023-06-07T23:24:00.803Z,86.54
2023-06-07T23:26:27.450Z,85.46
2023-06-07T23:28:53.920Z,86.46
2023-06-07T23:31:21.458Z,87.57
2023-06-07T23:33:48.048Z,88.00
2023-06-07T23:36:16.175Z,89.24
2023-06-07T23:38:45.817Z,89.80
2023-06-07T23:41:12.368Z,89.76
2023-06-07T23:43:38.943Z,90.40
2023-06-07T23:46:05.582Z,90.95
2023-06-07T23:48:32.074Z,90.47
2023-06-07T23:50:58.654Z,90.80
2023-06-07T23:53:25.441Z,91.43
2023-06-07T23:55:53.986Z,91.31
2023-06-07T23:58:20.595Z,90.79
